Aviation Digital Data Service (ADDS)

Output produced by METARs form (2138 UTC 26 February 2020)
found at http://www.aviationweather.gov/metar/data/
 
Forecast for: RPVM (MACTAN-CEBU , PH)
Text: TAF RPVM 261700Z 2618/2724 02008KT 9999 FEW020 BKN300
Forecast period: 1800 UTC 26 February 2020 to 0000 UTC 28 February 2020
Forecast type: FROM: standard forecast or significant change
Winds: from the NNE (20 degrees) at 9 MPH (8 knots; 4.1 m/s)
Visibility: 6 or more miles 10+ km)
Ceiling: 30000 feet AGL
Clouds: few clouds at 2000 feet AGL
broken clouds at 30000 feet AGL
Weather: no significant weather forecast for this period
Text: TEMPO 2618/2624 02012KT FEW020 BKN100
Forecast period: 1800 UTC 26 February 2020 to 0000 UTC 27 February 2020
Forecast type: TEMPORARY: The following changes expected for less than half the time period
Winds: from the NNE (20 degrees) at 14 MPH (12 knots; 6.2 m/s)
Visibility: missing
Ceiling: 10000 feet AGL
Clouds: few clouds at 2000 feet AGL
broken clouds at 10000 feet AGL
Weather: no significant weather forecast for this period
Text: TEMPO 2700/2706 01014KT
Forecast period: 0000 to 0600 UTC 27 February 2020
Forecast type: TEMPORARY: The following changes expected for less than half the time period
Winds: from the N (10 degrees) at 16 MPH (14 knots; 7.2 m/s)
Visibility: missing
Ceiling: unknown
Clouds: missing
Weather: no significant weather forecast for this period